• Join FlightAware (Why Join?)
  • Login
  • US Flag 
06:38PM EDT


 

Airport Tracker/Info


-or-


 

Live Flight TrackerFlight Track Log ✈ JBU51 ✈ 07-May-2013 ✈ KBTV - KJFK

Flight Track Log - Related Links

Times and Time Zones

All times are in EDT time to prevent confusion due to time zone crossing. See the JBU51 flight status page for this flight to view local times or setup timezone preferences in your user account.

Time Position Orientation Groundspeed Altitude Reporting Facility
EDT Latitude Longitude Course Direction KTS MPH feet Rate Location/Type
11:41AM 44.4364 -73.1261 194° South 176 203 2,200  Level Boston Center
11:42AM 44.3842 -73.1400 191° South 187 215 4,600 2,760 Climbing Boston Center
11:43AM 44.3217 -73.1656 196° South 236 272 7,800 3,120 Climbing Boston Center
11:44AM 44.1444 -73.2709 195° South  Level FlightAware Approximate
11:44AM 44.2483 -73.1964 197° South 276 318 11,000  Level Boston Center
11:45AM 44.0634 -73.3011 194° South  Level FlightAware Approximate
11:45AM 44.1669 -73.2303 197° South 303 349 13,200  Level Boston Center
11:46AM 43.9818 -73.3283 194° South  Level FlightAware Approximate
11:46AM 44.0728 -73.2694 197° South 337 388 15,600  Level Boston Center
11:47AM 43.9767 -73.3086 196° South 360 414 18,200 2,340 Climbing Boston Center
11:48AM 43.8744 -73.3503 196° South 375 432 20,400 2,160 Climbing Boston Center
11:49AM 43.7697 -73.3947 197° South 393 452 22,600 1,980 Climbing Boston Center
11:50AM 43.6486 -73.4414 196° South 409 471 24,400 1,920 Climbing Boston Center
11:51AM 43.5336 -73.4883 196° South 419 482 26,500 1,680 Climbing Boston Center
11:52AM 43.4183 -73.5319 195° South 424 488 27,800 720 Climbing Boston Center
11:53AM 43.3011 -73.5842 198° South 430 495 28,000 60 Climbing Boston Center
11:54AM 43.1819 -73.6275 195° South 440 506 28,000  Level Boston Center
11:55AM 43.0628 -73.6792 198° South 440 506 28,000  Level Boston Center
11:56AM 42.9456 -73.7250 196° South 445 512 28,000  Level Boston Center
11:57AM 42.8408 -73.7681 197° South 445 512 28,000  Level Boston Center
11:58AM 42.7194 -73.8078 194° South 445 512 28,000  Level Boston Center
11:59AM 42.5964 -73.8108 181° South 438 504 28,000  Level Boston Center
12:00PM 42.4775 -73.8139 181° South 438 504 28,000  Level Boston Center
12:01PM 42.3567 -73.8139 180° South 438 504 28,000  Level Boston Center
12:02PM 42.2358 -73.8169 181° South 438 504 28,000  Level Boston Center
12:03PM 42.1003 -73.8167 180° South 443 510 28,000  Level Boston Center
12:04PM 41.9931 -73.8786 203° Southwest 426 490 28,000  Level Boston Center
12:05PM 41.9308 -74.0139 238° Southwest 396 456 28,000 -840 Level Boston Center
12:06PM 41.7733 -74.1531 213° Southwest 404 465 25,800 -1,740 Descending New York Center
12:07PM 41.6572 -74.1361 174° South 384 442 23,600 -2,100 Descending New York Center
12:08PM 41.5664 -74.1094 168° South 389 448 21,700 -1,800 Descending New York Center
12:09PM 41.4608 -74.0819 169° South 384 442 20,000 -840 Descending New York Center
12:10PM 41.3564 -74.0906 184° South 384 442 20,000  Level New York Center
12:11PM 41.2756 -74.1556 211° Southwest 347 399 20,000  Level New York Center
12:12PM 41.1875 -74.1758 190° South 336 387 20,000 -480 Level New York Center
12:13PM 41.1167 -74.1667 174° South 325 374 19,300 -660 Descending New York TRACON
12:14PM 41.0333 -74.1333 163° South 321 369 19,000 -180 Descending New York TRACON
12:15PM 40.9500 -74.1000 163° South 322 371 19,000 -480 Level New York TRACON
12:16PM 40.8500 -74.0833 173° South 321 369 18,100 -960 Descending New York TRACON
12:17PM 40.8167 -73.9833 114° Southeast 322 371 17,200 -1,320 Descending New York TRACON
12:18PM 40.7667 -73.8833 123° Southeast 307 353 15,500 -1,620 Descending New York TRACON
12:19PM 40.7333 -73.7833 114° Southeast 306 352 13,900 -1,740 Descending New York TRACON
12:20PM 40.6833 -73.7000 128° Southeast 314 361 12,100 -1,740 Descending New York TRACON
12:21PM 40.6167 -73.6833 169° South 311 358 10,500 -1,800 Descending New York TRACON
12:22PM 40.5333 -73.6667 171° South 266 306 8,600 -1,980 Descending New York TRACON
12:23PM 40.4667 -73.6500 169° South 266 306 6,600 -2,040 Descending New York TRACON
12:24PM 40.4000 -73.7000 210° Southwest 266 306 4,600 -1,320 Descending New York TRACON
12:25PM 40.3500 -73.7667 225° Southwest 254 292 4,000 -720 Descending New York TRACON
12:26PM 40.3500 -73.8500 270° West 225 259 3,200 -480 Descending New York TRACON
12:27PM 40.4000 -73.9000 323° Northwest 202 232 3,000 -120 Descending New York TRACON
12:28PM 40.4500 -73.9167 346° North 198 228 3,000 -120 Level New York TRACON
12:29PM 40.5000 -73.8833 27° Northeast 186 214 2,800 -600 Descending New York TRACON
12:30PM 40.5500 -73.8500 27° Northeast 180 207 1,800 -960 Descending New York TRACON
12:31PM 40.5833 -73.8167 37° Northeast 136 157 900 -840 Descending New York TRACON
12:32PM 40.6167 -73.8000 21° North 123 142 300 -720 Descending New York TRACON